Main page
METAR-TAF:

METAR-TAF

Airports :

Isbell Field

Fort Payne, Alabama, United States

latitude: 34-28-25N, longitude: 085-43-17W, elevation: 876 ft

Current weather observation

The report was made 16 minutes ago, at 19:15 UTC
Wind 12 mph from the Northwest with gusts up to 23 mph
Temperature 54°F
Humidity 88%
Pressure 29.99 in. Hg
Visibility: 10 miles
Scattered clouds at a height of 1600 ft
Scattered clouds at a height of 2100 ft
Overcast at a height of 3600 ft

METAR: K4A9 281915Z AUTO 32010G20KT 10SM SCT016 SCT021 OVC036 12/10 A2999 RMK AO2 T01250100

Time: 13:31 (19:31 UTC)


TAF: missing

Weather observations and forecasts of more than 4000 airports (METAR and TAF reports).

The available stations are represented by yellow and red dots on the map.

Hover mouse over dot to see the name of the station.

Then click to see weather observations and forecasts.

To change the map : click on the green buttons with a black cross to zoom in, on the green button with a dash to zoom out, or on the green arrows for adjacent maps.


METAR-TAF: